createdAt,value
2018-08-30T00:04:11.945Z,21.11
2018-08-30T00:09:15.471Z,21.27
2018-08-30T00:14:18.989Z,21.36
2018-08-30T00:19:22.513Z,21.37
2018-08-30T00:24:25.992Z,21.43
2018-08-30T00:29:29.530Z,21.49
2018-08-30T00:34:33.023Z,21.34
2018-08-30T00:39:36.559Z,21.14
2018-08-30T00:44:40.030Z,21.15
2018-08-30T00:49:43.612Z,21.06
2018-08-30T00:54:47.283Z,20.99
2018-08-30T00:59:51.353Z,21.12
2018-08-30T01:04:54.930Z,21.17
2018-08-30T01:09:58.476Z,21.15
2018-08-30T01:15:02.234Z,21.21
2018-08-30T01:20:06.058Z,21.27
2018-08-30T01:25:10.150Z,21.27
2018-08-30T01:31:38.105Z,21.35
2018-08-30T01:36:43.218Z,21.42
2018-08-30T01:41:46.815Z,21.43
2018-08-30T01:46:56.765Z,21.41
2018-08-30T01:52:00.317Z,21.19
2018-08-30T01:57:03.870Z,20.89
2018-08-30T02:02:07.406Z,20.91
2018-08-30T02:07:11.159Z,21.00
2018-08-30T02:12:14.638Z,21.05
2018-08-30T02:17:18.148Z,21.02
2018-08-30T02:22:21.645Z,20.75
2018-08-30T02:27:25.243Z,20.62
2018-08-30T02:32:28.833Z,20.72
2018-08-30T02:37:32.358Z,20.86
2018-08-30T02:42:35.919Z,20.98
2018-08-30T02:47:39.523Z,21.07
2018-08-30T02:52:43.140Z,21.07
2018-08-30T02:57:46.678Z,21.07
2018-08-30T03:02:50.238Z,20.97
2018-08-30T03:07:53.785Z,20.91
2018-08-30T03:12:57.415Z,20.88
2018-08-30T03:18:01.000Z,20.85
2018-08-30T03:23:04.634Z,20.82
2018-08-30T03:28:08.142Z,20.78
2018-08-30T03:33:11.689Z,20.66
2018-08-30T03:38:15.301Z,20.49
2018-08-30T03:43:18.821Z,20.21
2018-08-30T03:48:22.531Z,20.20
2018-08-30T03:53:32.257Z,20.23
2018-08-30T03:58:35.769Z,20.13
2018-08-30T04:03:39.252Z,20.10
2018-08-30T04:08:42.808Z,20.18
2018-08-30T04:13:46.491Z,20.14
2018-08-30T04:18:54.154Z,20.09
2018-08-30T04:23:57.826Z,19.84
2018-08-30T04:29:02.423Z,19.93
2018-08-30T04:34:06.125Z,19.85
2018-08-30T04:39:09.677Z,19.91
2018-08-30T04:44:13.278Z,19.92
2018-08-30T04:49:16.810Z,19.83
2018-08-30T04:54:20.350Z,19.81
2018-08-30T04:59:23.887Z,20.01
2018-08-30T05:04:27.480Z,20.04
2018-08-30T05:09:31.089Z,20.06
2018-08-30T05:14:34.573Z,20.10
2018-08-30T05:19:38.109Z,19.99
2018-08-30T05:24:41.662Z,19.91
2018-08-30T05:29:45.313Z,19.84
2018-08-30T05:34:48.841Z,19.81
2018-08-30T05:39:52.454Z,19.91
2018-08-30T05:44:55.993Z,19.87
2018-08-30T05:49:59.475Z,19.93
2018-08-30T05:55:03.445Z,19.93
2018-08-30T06:00:07.740Z,19.65
2018-08-30T06:05:11.381Z,19.58
2018-08-30T06:10:14.900Z,19.62
2018-08-30T06:15:18.418Z,19.63
2018-08-30T06:20:21.959Z,19.60
2018-08-30T06:25:25.842Z,19.61
2018-08-30T06:30:29.612Z,19.74
2018-08-30T06:35:33.297Z,19.75
2018-08-30T06:40:36.825Z,19.66
2018-08-30T06:45:40.380Z,19.65
2018-08-30T06:50:44.002Z,19.70
2018-08-30T06:55:47.822Z,19.58
2018-08-30T07:00:51.358Z,19.46
2018-08-30T07:05:54.926Z,19.40
2018-08-30T07:10:58.427Z,19.29
2018-08-30T07:16:08.499Z,19.21
2018-08-30T07:21:12.190Z,19.26
2018-08-30T07:26:15.715Z,19.38
2018-08-30T07:31:19.470Z,19.44
2018-08-30T07:36:23.095Z,19.31
2018-08-30T07:41:26.580Z,19.29
2018-08-30T07:46:30.178Z,19.14
2018-08-30T07:51:33.809Z,19.19
2018-08-30T07:56:37.418Z,19.46
2018-08-30T08:01:41.394Z,19.80
2018-08-30T08:06:45.062Z,19.81
2018-08-30T08:11:48.659Z,19.79
2018-08-30T08:16:52.156Z,19.82
2018-08-30T08:21:56.068Z,19.85
2018-08-30T08:27:00.931Z,19.80
2018-08-30T08:32:04.533Z,19.66
2018-08-30T08:37:09.061Z,19.53
2018-08-30T08:42:12.583Z,19.49
2018-08-30T08:47:16.574Z,19.39
2018-08-30T08:52:20.184Z,19.38
2018-08-30T08:57:23.754Z,19.24
2018-08-30T09:02:27.299Z,19.12
2018-08-30T09:07:30.849Z,19.04
2018-08-30T09:12:34.571Z,18.96
2018-08-30T09:17:38.240Z,19.07
2018-08-30T09:22:41.793Z,19.21
2018-08-30T09:27:45.353Z,19.12
2018-08-30T09:32:48.970Z,19.02
2018-08-30T09:37:52.526Z,18.86
2018-08-30T09:42:56.043Z,18.70
2018-08-30T09:47:59.691Z,18.76
2018-08-30T09:53:03.206Z,18.72
2018-08-30T09:58:06.811Z,18.72
2018-08-30T10:03:10.506Z,18.64
2018-08-30T10:08:13.988Z,18.47
2018-08-30T10:13:17.494Z,18.10
2018-08-30T10:18:21.024Z,17.83
2018-08-30T10:23:24.578Z,17.55
2018-08-30T10:28:28.176Z,18.06
2018-08-30T10:33:31.694Z,18.20
2018-08-30T10:38:35.249Z,18.26
2018-08-30T10:43:38.773Z,18.43
2018-08-30T10:48:42.898Z,18.48
2018-08-30T10:53:46.465Z,18.66
2018-08-30T10:58:50.100Z,18.58
2018-08-30T11:03:53.835Z,18.54
2018-08-30T11:08:57.345Z,18.51
2018-08-30T11:14:00.888Z,18.30
2018-08-30T11:19:04.459Z,18.19
2018-08-30T11:24:08.478Z,18.25
2018-08-30T11:29:12.027Z,18.12
2018-08-30T11:34:15.702Z,18.18
2018-08-30T11:39:19.221Z,18.10
2018-08-30T11:44:22.808Z,17.78
2018-08-30T11:49:26.353Z,17.87
2018-08-30T11:54:29.842Z,17.82
2018-08-30T11:59:33.393Z,17.79
2018-08-30T12:04:37.866Z,17.45
2018-08-30T12:09:41.552Z,17.53
2018-08-30T12:14:45.115Z,17.62
2018-08-30T12:19:48.643Z,17.74
2018-08-30T12:24:52.158Z,18.14
2018-08-30T12:29:55.691Z,18.15
2018-08-30T12:34:59.315Z,17.98
2018-08-30T12:40:03.196Z,17.84
2018-08-30T12:45:06.683Z,17.95
2018-08-30T12:50:10.281Z,18.00
2018-08-30T12:55:13.727Z,17.88
2018-08-30T13:00:17.441Z,18.08
2018-08-30T13:05:21.096Z,18.22
2018-08-30T13:10:24.712Z,18.40
2018-08-30T13:15:28.284Z,18.30
2018-08-30T13:20:31.876Z,18.72
2018-08-30T13:25:35.456Z,18.36
2018-08-30T13:30:39.046Z,18.83
2018-08-30T13:35:42.660Z,18.71
2018-08-30T13:40:46.352Z,18.73
2018-08-30T13:45:49.793Z,18.78
2018-08-30T13:50:53.431Z,18.52
2018-08-30T13:55:56.840Z,18.53
2018-08-30T14:01:00.836Z,18.58
2018-08-30T14:06:03.745Z,18.71
2018-08-30T14:11:13.693Z,18.64
2018-08-30T14:16:17.055Z,18.96
2018-08-30T14:21:21.459Z,18.96
2018-08-30T14:26:25.092Z,19.10
2018-08-30T14:31:28.522Z,19.17
2018-08-30T14:36:32.066Z,19.13
2018-08-30T14:41:35.520Z,18.98
2018-08-30T14:46:45.441Z,18.87
2018-08-30T14:51:49.057Z,18.81
2018-08-30T14:56:52.616Z,18.90
2018-08-30T15:01:56.170Z,19.01
2018-08-30T15:06:59.658Z,19.45
2018-08-30T15:12:03.259Z,19.54
2018-08-30T15:17:06.726Z,19.55
2018-08-30T15:22:10.410Z,19.46
2018-08-30T15:27:13.947Z,19.48
2018-08-30T15:32:17.396Z,19.47
2018-08-30T15:37:20.882Z,19.49
2018-08-30T15:42:24.492Z,19.56
2018-08-30T15:47:28.026Z,19.50
2018-08-30T15:52:31.490Z,19.46
2018-08-30T15:57:35.078Z,19.35
2018-08-30T16:02:38.555Z,19.11
2018-08-30T16:07:42.590Z,19.02
2018-08-30T16:12:46.066Z,18.98
2018-08-30T16:17:50.083Z,19.00
2018-08-30T16:23:12.459Z,18.94
2018-08-30T16:28:16.010Z,18.86
2018-08-30T16:33:19.527Z,18.80
2018-08-30T16:38:23.256Z,18.78
2018-08-30T16:43:26.704Z,18.72
2018-08-30T16:48:30.266Z,18.64
2018-08-30T16:53:33.772Z,18.43
2018-08-30T16:58:37.320Z,18.13
2018-08-30T17:03:40.737Z,17.93
2018-08-30T17:08:44.382Z,17.79
2018-08-30T17:13:47.857Z,17.54
2018-08-30T17:18:53.213Z,17.43
2018-08-30T17:23:57.202Z,17.46
2018-08-30T17:29:00.752Z,17.50
2018-08-30T17:34:04.493Z,17.44
2018-08-30T17:39:09.724Z,17.39
2018-08-30T17:44:13.408Z,17.36
2018-08-30T17:49:17.821Z,17.29
2018-08-30T17:54:21.627Z,17.20
2018-08-30T17:59:25.228Z,17.14
2018-08-30T18:04:28.858Z,16.79
2018-08-30T18:09:32.417Z,16.58
2018-08-30T18:14:35.977Z,16.58
2018-08-30T18:19:39.589Z,16.37
2018-08-30T18:24:43.108Z,16.41
2018-08-30T18:29:46.851Z,16.49
2018-08-30T18:34:50.448Z,16.31
2018-08-30T18:39:54.113Z,16.24
2018-08-30T18:44:57.666Z,16.20
2018-08-30T18:50:01.346Z,16.25
2018-08-30T18:55:05.187Z,16.09
2018-08-30T19:00:08.989Z,16.09
2018-08-30T19:05:12.491Z,16.11
2018-08-30T19:10:15.956Z,16.23
2018-08-30T19:15:24.621Z,16.22
2018-08-30T19:20:28.230Z,16.24
2018-08-30T19:25:31.855Z,16.29
2018-08-30T19:30:35.468Z,16.33
2018-08-30T19:35:44.351Z,16.48
2018-08-30T19:40:53.043Z,16.57
2018-08-30T19:45:56.546Z,16.61
2018-08-30T19:51:00.111Z,16.54
2018-08-30T19:56:03.591Z,16.60
2018-08-30T20:01:07.318Z,16.56
2018-08-30T20:06:10.810Z,16.51
2018-08-30T20:11:14.410Z,16.40
2018-08-30T20:16:17.925Z,16.36
2018-08-30T20:21:21.518Z,16.33
2018-08-30T20:26:25.426Z,16.27
2018-08-30T20:31:29.090Z,16.25
2018-08-30T20:36:32.616Z,16.15
2018-08-30T20:41:36.217Z,16.09
2018-08-30T20:46:39.905Z,16.13
2018-08-30T20:51:43.385Z,16.05
2018-08-30T20:56:47.107Z,15.93
2018-08-30T21:01:50.798Z,15.97
2018-08-30T21:06:54.381Z,15.95
2018-08-30T21:11:57.926Z,16.05
2018-08-30T21:17:01.391Z,16.09
2018-08-30T21:22:04.918Z,16.14
2018-08-30T21:27:08.437Z,16.15
2018-08-30T21:32:12.083Z,16.18
2018-08-30T21:37:15.806Z,16.13
2018-08-30T21:42:19.383Z,16.15
2018-08-30T21:47:22.956Z,16.14
2018-08-30T21:52:26.524Z,16.22
2018-08-30T21:57:30.078Z,16.20
2018-08-30T22:02:33.570Z,16.22
2018-08-30T22:07:37.082Z,16.26
2018-08-30T22:12:40.625Z,16.24
2018-08-30T22:17:44.178Z,16.25
2018-08-30T22:22:47.698Z,16.23
2018-08-30T22:27:51.258Z,16.14
2018-08-30T22:32:54.827Z,16.20
2018-08-30T22:37:58.377Z,16.18
2018-08-30T22:43:01.914Z,16.18
2018-08-30T22:48:05.544Z,16.18
2018-08-30T22:53:09.066Z,16.14
2018-08-30T22:58:12.553Z,16.17
2018-08-30T23:03:16.209Z,16.15
2018-08-30T23:08:19.755Z,16.08
2018-08-30T23:13:23.257Z,15.94
2018-08-30T23:18:26.874Z,15.85
2018-08-30T23:23:31.057Z,15.85
2018-08-30T23:28:34.622Z,15.80
2018-08-30T23:33:38.203Z,15.67
2018-08-30T23:38:41.773Z,15.67
2018-08-30T23:43:45.253Z,15.62
2018-08-30T23:48:48.842Z,15.63
2018-08-30T23:53:52.342Z,15.57
2018-08-30T23:59:07.059Z,15.55
